createdAt,value
2023-03-02T00:01:52.589Z,101328.23
2023-03-02T00:04:23.035Z,101328.21
2023-03-02T00:06:52.678Z,101331.08
2023-03-02T00:09:21.573Z,101328.17
2023-03-02T00:11:51.537Z,101328.26
2023-03-02T00:14:20.425Z,101322.98
2023-03-02T00:16:49.301Z,101324.42
2023-03-02T00:19:18.261Z,101324.12
2023-03-02T00:21:47.146Z,101323.53
2023-03-02T00:24:16.178Z,101326.54
2023-03-02T00:26:45.703Z,101324.39
2023-03-02T00:29:15.214Z,101324.46
2023-03-02T00:31:44.074Z,101320.98
2023-03-02T00:34:12.941Z,101313.62
2023-03-02T00:36:42.059Z,101318.36
2023-03-02T00:39:11.195Z,101319.47
2023-03-02T00:41:40.094Z,101326.15
2023-03-02T00:44:08.929Z,101322.69
2023-03-02T00:46:40.213Z,101318.98
2023-03-02T00:49:09.114Z,101316.48
2023-03-02T00:51:37.942Z,101313.65
2023-03-02T00:54:06.933Z,101313.19
2023-03-02T00:56:36.252Z,101309.70
2023-03-02T00:59:11.220Z,101307.18
2023-03-02T01:01:40.329Z,101310.86
2023-03-02T01:04:09.669Z,101305.64
2023-03-02T01:06:47.286Z,101307.30
2023-03-02T01:09:16.205Z,101298.90
2023-03-02T01:11:45.017Z,101291.74
2023-03-02T01:14:14.140Z,101290.64
2023-03-02T01:16:45.307Z,101288.08
2023-03-02T01:19:14.468Z,101287.77
2023-03-02T01:21:44.388Z,101278.30
2023-03-02T01:24:13.206Z,101277.16
2023-03-02T01:26:42.039Z,101270.71
2023-03-02T01:29:11.625Z,101269.30
2023-03-02T01:31:40.718Z,101267.95
2023-03-02T01:34:09.827Z,101262.05
2023-03-02T01:36:38.717Z,101260.30
2023-03-02T01:39:07.587Z,101256.55
2023-03-02T01:41:36.499Z,101254.30
2023-03-02T01:44:05.732Z,101252.08
2023-03-02T01:46:35.424Z,101251.67
2023-03-02T01:49:07.002Z,101250.82
2023-03-02T01:51:44.603Z,101246.41
2023-03-02T01:54:23.113Z,101245.20
2023-03-02T01:56:58.359Z,101244.65
2023-03-02T01:59:36.935Z,101242.46
2023-03-02T02:02:08.953Z,101238.59
2023-03-02T02:04:39.821Z,101236.48
2023-03-02T02:07:09.654Z,101239.46
2023-03-02T02:09:41.433Z,101233.61
2023-03-02T02:12:14.813Z,101234.61
2023-03-02T02:14:44.657Z,101227.84
2023-03-02T02:17:14.078Z,101228.94
2023-03-02T02:19:48.361Z,101230.73
2023-03-02T02:22:22.594Z,101226.34
2023-03-02T02:24:55.165Z,101226.27
2023-03-02T02:27:29.794Z,101228.64
2023-03-02T02:29:59.416Z,101223.98
2023-03-02T02:32:30.366Z,101220.87
2023-03-02T02:35:01.520Z,101221.00
2023-03-02T02:37:34.090Z,101217.20
2023-03-02T02:40:07.275Z,101218.17
2023-03-02T02:42:39.240Z,101218.06
2023-03-02T02:45:18.543Z,101210.53
2023-03-02T02:47:47.723Z,101211.70
2023-03-02T02:50:18.798Z,101210.99
2023-03-02T02:52:49.836Z,101205.65
2023-03-02T02:55:21.853Z,101211.65
2023-03-02T02:57:52.320Z,101210.11
2023-03-02T03:00:22.912Z,101206.60
2023-03-02T03:02:54.506Z,101207.38
2023-03-02T03:05:23.406Z,101204.10
2023-03-02T03:07:53.291Z,101202.23
2023-03-02T03:10:27.332Z,101204.30
2023-03-02T03:12:56.477Z,101205.70
2023-03-02T03:15:25.352Z,101206.94
2023-03-02T03:17:56.942Z,101209.34
2023-03-02T03:20:26.949Z,101208.05
2023-03-02T03:22:59.386Z,101203.38
2023-03-02T03:25:29.291Z,101204.90
2023-03-02T03:27:58.407Z,101202.33
2023-03-02T03:30:27.210Z,101202.05
2023-03-02T03:32:56.107Z,101197.85
2023-03-02T03:35:25.070Z,101201.40
2023-03-02T03:37:54.789Z,101200.44
2023-03-02T03:40:23.741Z,101206.15
2023-03-02T03:42:53.846Z,101207.58
2023-03-02T03:45:23.244Z,101209.74
2023-03-02T03:47:52.141Z,101203.86
2023-03-02T03:50:21.205Z,101201.95
2023-03-02T03:52:50.518Z,101201.27
2023-03-02T03:55:23.748Z,101195.41
2023-03-02T03:57:55.177Z,101201.45
2023-03-02T04:00:24.525Z,101199.77
2023-03-02T04:03:00.602Z,101197.84
2023-03-02T04:05:31.752Z,101197.33
2023-03-02T04:08:02.686Z,101196.02
2023-03-02T04:10:32.580Z,101192.96
2023-03-02T04:13:01.503Z,101192.67
2023-03-02T04:15:33.528Z,101195.10
2023-03-02T04:18:03.250Z,101196.77
2023-03-02T04:20:33.412Z,101190.66
2023-03-02T04:23:02.313Z,101195.55
2023-03-02T04:25:32.072Z,101190.68
2023-03-02T04:28:06.449Z,101187.13
2023-03-02T04:30:38.764Z,101191.89
2023-03-02T04:33:07.898Z,101193.47
2023-03-02T04:35:37.605Z,101193.51
2023-03-02T04:38:06.669Z,101191.81
2023-03-02T04:40:36.081Z,101188.64
2023-03-02T04:43:04.910Z,101187.23
2023-03-02T04:45:33.843Z,101182.57
2023-03-02T04:48:02.687Z,101184.33
2023-03-02T04:50:31.533Z,101181.25
2023-03-02T04:53:00.482Z,101174.33
2023-03-02T04:55:29.424Z,101176.80
2023-03-02T04:57:58.300Z,101176.50
2023-03-02T05:00:28.856Z,101175.30
2023-03-02T05:02:58.391Z,101178.72
2023-03-02T05:05:27.721Z,101177.88
2023-03-02T05:07:58.497Z,101175.70
2023-03-02T05:10:28.505Z,101180.30
2023-03-02T05:13:02.253Z,101184.83
2023-03-02T05:15:32.301Z,101188.11
2023-03-02T05:18:01.494Z,101189.55
2023-03-02T05:20:31.654Z,101188.45
2023-03-02T05:23:02.055Z,101194.15
2023-03-02T05:25:32.404Z,101199.35
2023-03-02T05:28:01.919Z,101196.59
2023-03-02T05:30:32.740Z,101194.23
2023-03-02T05:33:01.592Z,101191.63
2023-03-02T05:35:30.586Z,101187.61
2023-03-02T05:37:59.511Z,101181.78
2023-03-02T05:40:28.414Z,101177.85
2023-03-02T05:42:57.208Z,101173.75
2023-03-02T05:45:28.222Z,101179.25
2023-03-02T05:47:57.096Z,101179.02
2023-03-02T05:50:26.309Z,101183.10
2023-03-02T05:52:55.358Z,101179.91
2023-03-02T05:55:24.632Z,101182.25
2023-03-02T05:57:53.607Z,101186.09
2023-03-02T06:00:23.010Z,101186.08
2023-03-02T06:02:51.866Z,101192.39
2023-03-02T06:05:22.796Z,101193.52
2023-03-02T06:07:51.697Z,101199.70
2023-03-02T06:10:20.554Z,101204.77
2023-03-02T06:12:49.313Z,101206.14
2023-03-02T06:15:18.254Z,101204.02
2023-03-02T06:17:47.043Z,101207.02
2023-03-02T06:20:16.449Z,101207.95
2023-03-02T06:22:46.129Z,101208.92
2023-03-02T06:25:15.887Z,101209.80
2023-03-02T06:27:44.928Z,101208.39
2023-03-02T06:30:15.673Z,101210.98
2023-03-02T06:32:44.653Z,101213.42
2023-03-02T06:35:14.009Z,101209.29
2023-03-02T06:37:44.253Z,101211.64
2023-03-02T06:40:14.498Z,101209.80
2023-03-02T06:42:43.735Z,101211.31
2023-03-02T06:45:12.909Z,101215.88
2023-03-02T06:47:41.727Z,101215.98
2023-03-02T06:50:13.807Z,101218.66
2023-03-02T06:52:42.684Z,101221.29
2023-03-02T06:55:11.762Z,101221.81
2023-03-02T06:57:40.633Z,101220.78
2023-03-02T07:00:17.245Z,101224.28
2023-03-02T07:02:46.260Z,101226.63
2023-03-02T07:05:15.099Z,101223.52
2023-03-02T07:07:44.002Z,101222.96
2023-03-02T07:10:13.430Z,101217.49
2023-03-02T07:12:43.164Z,101218.19
2023-03-02T07:15:14.347Z,101214.73
2023-03-02T07:17:44.448Z,101210.58
2023-03-02T07:20:14.752Z,101206.94
2023-03-02T07:22:44.330Z,101202.81
2023-03-02T07:25:13.284Z,101202.72
2023-03-02T07:27:42.658Z,101205.09
2023-03-02T07:30:14.677Z,101202.30
2023-03-02T07:32:43.653Z,101198.67
2023-03-02T07:35:12.500Z,101196.23
2023-03-02T07:37:41.815Z,101196.24
2023-03-02T07:40:12.559Z,101196.52
2023-03-02T07:42:41.580Z,101196.45
2023-03-02T07:45:22.842Z,101193.95
2023-03-02T07:48:12.091Z,101195.95
2023-03-02T07:50:49.691Z,101194.02
2023-03-02T07:53:19.942Z,101194.23
2023-03-02T07:55:48.777Z,101195.67
2023-03-02T07:58:17.679Z,101198.17
2023-03-02T08:00:46.502Z,101200.91
2023-03-02T08:03:15.375Z,101201.02
2023-03-02T08:05:44.270Z,101198.77
2023-03-02T08:08:13.190Z,101195.52
2023-03-02T08:10:42.047Z,101188.93
2023-03-02T08:13:10.874Z,101192.73
2023-03-02T08:15:42.320Z,101187.41
2023-03-02T08:18:11.525Z,101183.91
2023-03-02T08:20:40.490Z,101179.23
2023-03-02T08:23:09.385Z,101178.90
2023-03-02T08:25:38.851Z,101175.91
2023-03-02T08:28:07.755Z,101175.59
2023-03-02T08:30:36.631Z,101174.02
2023-03-02T08:33:07.227Z,101176.61
2023-03-02T08:35:36.279Z,101178.71
2023-03-02T08:38:05.132Z,101180.10
2023-03-02T08:40:34.941Z,101183.17
2023-03-02T08:43:03.827Z,101180.92
2023-03-02T08:45:32.717Z,101182.57
2023-03-02T08:48:01.602Z,101182.27
2023-03-02T08:50:30.475Z,101178.26
2023-03-02T08:52:59.392Z,101176.85
2023-03-02T08:55:28.416Z,101173.98
2023-03-02T08:57:58.432Z,101176.38
2023-03-02T09:00:30.643Z,101172.13
2023-03-02T09:03:02.328Z,101166.91
2023-03-02T09:05:31.350Z,101166.10
2023-03-02T09:08:00.684Z,101162.87
2023-03-02T09:10:29.531Z,101160.34
2023-03-02T09:12:58.729Z,101157.27
2023-03-02T09:15:27.602Z,101155.61
2023-03-02T09:17:56.503Z,101157.75
2023-03-02T09:20:25.556Z,101154.30
2023-03-02T09:22:54.442Z,101152.02
2023-03-02T09:25:23.387Z,101144.96
2023-03-02T09:27:52.242Z,101146.80
2023-03-02T09:30:21.265Z,101142.59
2023-03-02T09:32:50.328Z,101135.59
2023-03-02T09:35:19.485Z,101140.09
2023-03-02T09:37:48.456Z,101141.60
2023-03-02T09:40:21.559Z,101137.74
2023-03-02T09:43:12.716Z,101137.61
2023-03-02T09:45:56.985Z,101134.30
2023-03-02T09:48:33.216Z,101133.96
2023-03-02T09:51:08.197Z,101129.63
2023-03-02T09:53:41.211Z,101124.35
2023-03-02T09:56:14.576Z,101125.19
2023-03-02T09:58:46.649Z,101126.46
2023-03-02T10:01:17.386Z,101125.83
2023-03-02T10:03:51.300Z,101124.84
2023-03-02T10:06:22.185Z,101118.37
2023-03-02T10:08:51.628Z,101116.95
2023-03-02T10:11:28.097Z,101122.14
2023-03-02T10:13:59.812Z,101119.86
2023-03-02T10:16:34.067Z,101118.93
2023-03-02T10:19:07.982Z,101124.79
2023-03-02T10:21:39.201Z,101115.54
2023-03-02T10:24:15.857Z,101114.77
2023-03-02T10:26:46.640Z,101115.92
2023-03-02T10:29:38.436Z,101111.40
2023-03-02T10:32:16.315Z,101109.63
2023-03-02T10:34:48.080Z,101105.59
2023-03-02T10:37:18.532Z,101103.95
2023-03-02T10:39:47.563Z,101105.09
2023-03-02T10:42:18.950Z,101100.91
2023-03-02T10:44:51.347Z,101091.72
2023-03-02T10:47:24.768Z,101095.75
2023-03-02T10:49:54.274Z,101088.42
2023-03-02T10:52:24.817Z,101088.31
2023-03-02T10:55:04.395Z,101083.33
2023-03-02T10:57:36.255Z,101076.45
2023-03-02T11:00:06.829Z,101074.98
2023-03-02T11:02:37.771Z,101073.58
2023-03-02T11:05:20.258Z,101068.61
2023-03-02T11:07:55.104Z,101064.11
2023-03-02T11:10:28.441Z,101063.67
2023-03-02T11:12:58.285Z,101063.66
2023-03-02T11:15:28.916Z,101059.13
2023-03-02T11:18:02.975Z,101054.34
2023-03-02T11:20:34.318Z,101050.80
2023-03-02T11:23:17.438Z,101047.96
2023-03-02T11:25:52.477Z,101044.92
2023-03-02T11:28:37.518Z,101042.17
2023-03-02T11:31:10.416Z,101039.67
2023-03-02T11:33:44.620Z,101039.48
2023-03-02T11:36:17.057Z,101037.33
2023-03-02T11:38:50.889Z,101032.01
2023-03-02T11:41:30.760Z,101023.00
2023-03-02T11:44:01.524Z,101020.50
2023-03-02T11:46:34.902Z,101019.89
2023-03-02T11:49:05.977Z,101021.08
2023-03-02T11:51:50.043Z,101019.27
2023-03-02T11:54:34.040Z,101013.11
2023-03-02T11:57:03.010Z,101006.11
2023-03-02T11:59:32.828Z,101007.15
2023-03-02T12:02:02.132Z,101000.84
2023-03-02T12:04:33.577Z,100998.70
2023-03-02T12:07:04.184Z,100998.10
2023-03-02T12:09:38.383Z,100992.98
2023-03-02T12:12:24.687Z,100987.49
2023-03-02T12:14:53.894Z,100977.13
2023-03-02T12:17:31.712Z,100976.30
2023-03-02T12:20:11.486Z,100970.11
2023-03-02T12:22:41.678Z,100965.63
2023-03-02T12:28:05.167Z,100958.98
2023-03-02T12:30:34.270Z,100963.21
2023-03-02T12:33:17.850Z,100958.75
2023-03-02T12:35:48.536Z,100958.50
2023-03-02T12:38:23.811Z,100955.06
2023-03-02T12:41:00.231Z,100948.63
2023-03-02T12:43:31.391Z,100947.11
2023-03-02T12:46:25.246Z,100945.22
2023-03-02T12:48:58.650Z,100942.45
2023-03-02T12:51:28.559Z,100935.25
2023-03-02T12:54:09.124Z,100923.42
2023-03-02T12:56:39.226Z,100916.45
2023-03-02T12:59:08.158Z,100911.09
2023-03-02T13:01:38.977Z,100904.85
2023-03-02T13:04:08.253Z,100894.98
2023-03-02T13:06:39.571Z,100893.27
2023-03-02T13:09:15.130Z,100885.33
2023-03-02T13:11:45.197Z,100883.19
2023-03-02T13:14:23.160Z,100875.89
2023-03-02T13:17:03.349Z,100869.31
2023-03-02T13:19:34.215Z,100864.13
2023-03-02T13:22:10.267Z,100859.41
2023-03-02T13:24:47.741Z,100854.95
2023-03-02T13:27:20.740Z,100855.70
2023-03-02T13:29:52.387Z,100849.30
2023-03-02T13:32:23.147Z,100842.56
2023-03-02T13:34:53.347Z,100842.84
2023-03-02T13:37:25.553Z,100838.46
2023-03-02T13:39:58.678Z,100838.71
2023-03-02T13:42:38.084Z,100829.38
2023-03-02T13:45:25.138Z,100827.27
2023-03-02T13:47:54.791Z,100824.74
2023-03-02T13:50:26.238Z,100819.73
2023-03-02T13:52:56.917Z,100813.70
2023-03-02T13:55:27.388Z,100810.21
2023-03-02T13:57:57.598Z,100810.65
2023-03-02T14:00:31.852Z,100804.67
2023-03-02T14:03:00.865Z,100806.47
2023-03-02T14:05:35.168Z,100800.76
2023-03-02T14:08:05.845Z,100798.12
2023-03-02T14:10:35.006Z,100794.48
2023-03-02T14:13:07.379Z,100791.58
2023-03-02T14:15:38.026Z,100785.94
2023-03-02T14:18:11.906Z,100787.90
2023-03-02T14:20:40.899Z,100779.66
2023-03-02T14:23:10.949Z,100781.61
2023-03-02T14:25:44.045Z,100780.35
2023-03-02T14:28:18.461Z,100784.88
2023-03-02T14:30:59.239Z,100777.85
2023-03-02T14:33:28.343Z,100778.87
2023-03-02T14:36:02.554Z,100775.55
2023-03-02T14:38:31.830Z,100784.14
2023-03-02T14:41:02.142Z,100776.83
2023-03-02T14:43:33.011Z,100777.05
2023-03-02T14:46:01.889Z,100777.45
2023-03-02T14:48:34.594Z,100779.06
2023-03-02T14:51:04.292Z,100780.61
2023-03-02T14:53:35.302Z,100780.73
2023-03-02T14:56:04.474Z,100779.05
2023-03-02T14:58:34.734Z,100777.17
2023-03-02T15:01:04.531Z,100776.22
2023-03-02T15:03:39.813Z,100777.92
2023-03-02T15:06:18.151Z,100779.23
2023-03-02T15:08:47.014Z,100771.61
2023-03-02T15:11:15.950Z,100774.75
2023-03-02T15:13:46.169Z,100773.36
2023-03-02T15:16:19.609Z,100772.52
2023-03-02T15:18:50.938Z,100772.14
2023-03-02T15:21:23.758Z,100768.98
2023-03-02T15:23:52.713Z,100764.72
2023-03-02T15:26:24.000Z,100768.67
2023-03-02T15:29:12.478Z,100774.52
2023-03-02T15:31:41.490Z,100775.30
2023-03-02T15:34:11.368Z,100774.15
2023-03-02T15:36:42.807Z,100771.44
2023-03-02T15:39:14.059Z,100772.20
2023-03-02T15:41:43.115Z,100771.01
2023-03-02T15:44:16.756Z,100770.67
2023-03-02T15:46:46.066Z,100767.56
2023-03-02T15:49:17.365Z,100766.70
2023-03-02T15:51:46.260Z,100766.00
2023-03-02T15:54:15.141Z,100765.13
2023-03-02T15:56:45.236Z,100766.52
2023-03-02T15:59:14.209Z,100765.29
2023-03-02T16:01:43.149Z,100766.86
2023-03-02T16:04:15.928Z,100765.97
2023-03-02T16:06:47.140Z,100771.36
2023-03-02T16:09:16.506Z,100770.27
2023-03-02T16:11:49.277Z,100767.81
2023-03-02T16:14:18.834Z,100773.33
2023-03-02T16:16:47.868Z,100771.89
2023-03-02T16:19:19.470Z,100774.97
2023-03-02T16:21:48.700Z,100775.95
2023-03-02T16:24:17.693Z,100779.73
2023-03-02T16:27:16.137Z,100779.28
2023-03-02T16:29:46.201Z,100775.26
2023-03-02T16:32:15.430Z,100779.62
2023-03-02T16:34:45.105Z,100783.05
2023-03-02T16:37:14.166Z,100786.52
2023-03-02T16:39:43.139Z,100790.38
2023-03-02T16:42:12.782Z,100793.33
2023-03-02T16:44:42.698Z,100793.13
2023-03-02T16:47:11.697Z,100803.89
2023-03-02T16:49:40.616Z,100802.84
2023-03-02T16:52:09.491Z,100809.44
2023-03-02T16:54:38.358Z,100810.98
2023-03-02T16:57:10.396Z,100813.88
2023-03-02T16:59:42.187Z,100819.74
2023-03-02T17:02:12.271Z,100823.72
2023-03-02T17:04:42.537Z,100824.05
2023-03-02T17:07:11.638Z,100830.48
2023-03-02T17:09:55.201Z,100835.49
2023-03-02T17:12:24.204Z,100840.52
2023-03-02T17:14:53.016Z,100843.83
2023-03-02T17:17:21.820Z,100843.48
2023-03-02T17:19:50.706Z,100847.86
2023-03-02T17:22:19.576Z,100847.82
2023-03-02T17:24:50.918Z,100841.91
2023-03-02T17:27:25.214Z,100841.36
2023-03-02T17:29:54.787Z,100843.77
2023-03-02T17:32:24.745Z,100845.95
2023-03-02T17:34:53.779Z,100845.40
2023-03-02T17:37:22.716Z,100849.94
2023-03-02T17:39:51.744Z,100847.91
2023-03-02T17:42:20.565Z,100853.02
2023-03-02T17:44:49.427Z,100855.98
2023-03-02T17:47:18.526Z,100854.14
2023-03-02T17:49:47.376Z,100853.30
2023-03-02T17:52:17.127Z,100852.13
2023-03-02T17:54:46.088Z,100855.13
2023-03-02T17:57:17.732Z,100856.69
2023-03-02T17:59:46.928Z,100854.11
2023-03-02T18:02:15.850Z,100857.63
2023-03-02T18:04:45.673Z,100865.06
2023-03-02T18:07:15.233Z,100861.76
2023-03-02T18:09:44.516Z,100862.43
2023-03-02T18:12:13.385Z,100865.49
2023-03-02T18:14:42.300Z,100861.77
2023-03-02T18:17:12.461Z,100864.73
2023-03-02T18:19:41.357Z,100863.89
2023-03-02T18:22:11.522Z,100869.45
2023-03-02T18:24:40.379Z,100868.06
2023-03-02T18:27:09.299Z,100869.23
2023-03-02T18:29:38.974Z,100872.00
2023-03-02T18:32:08.046Z,100875.14
2023-03-02T18:34:36.897Z,100873.80
2023-03-02T18:37:05.758Z,100875.06
2023-03-02T18:39:35.168Z,100881.48
2023-03-02T18:42:04.180Z,100880.10
2023-03-02T18:44:33.524Z,100881.85
2023-03-02T18:47:02.411Z,100883.42
2023-03-02T18:49:31.262Z,100886.91
2023-03-02T18:52:05.763Z,100887.35
2023-03-02T18:54:42.056Z,100886.13
2023-03-02T18:57:11.813Z,100886.27
2023-03-02T18:59:41.213Z,100885.02
2023-03-02T19:02:12.764Z,100878.23
2023-03-02T19:04:42.663Z,100880.80
2023-03-02T19:07:11.575Z,100881.52
2023-03-02T19:09:40.451Z,100882.02
2023-03-02T19:12:09.360Z,100883.80
2023-03-02T19:14:39.539Z,100886.79
2023-03-02T19:17:08.365Z,100888.06
2023-03-02T19:19:37.305Z,100891.10
2023-03-02T19:22:13.524Z,100898.92
2023-03-02T19:24:44.360Z,100898.79
2023-03-02T19:27:13.523Z,100899.71
2023-03-02T19:29:42.956Z,100895.01
2023-03-02T19:32:15.326Z,100892.27
2023-03-02T19:34:44.443Z,100893.55
2023-03-02T19:37:13.614Z,100899.17
2023-03-02T19:39:42.883Z,100899.39
2023-03-02T19:42:11.770Z,100894.02
2023-03-02T19:44:40.770Z,100893.80
2023-03-02T19:47:09.684Z,100895.85
2023-03-02T19:49:38.612Z,100894.44
2023-03-02T19:52:09.271Z,100900.54
2023-03-02T19:54:38.122Z,100899.23
2023-03-02T19:57:08.084Z,100901.66
2023-03-02T19:59:39.600Z,100903.55
2023-03-02T20:02:08.882Z,100901.80
2023-03-02T20:04:37.785Z,100907.35
2023-03-02T20:07:06.633Z,100905.13
2023-03-02T20:09:35.684Z,100902.92
2023-03-02T20:12:06.177Z,100904.85
2023-03-02T20:14:36.314Z,100908.35
2023-03-02T20:17:05.529Z,100910.64
2023-03-02T20:19:34.414Z,100913.35
2023-03-02T20:22:03.710Z,100909.73
2023-03-02T20:24:32.749Z,100911.10
2023-03-02T20:27:01.834Z,100914.23
2023-03-02T20:29:31.031Z,100914.98
2023-03-02T20:32:00.279Z,100910.98
2023-03-02T20:34:29.242Z,100907.28
2023-03-02T20:36:58.108Z,100903.58
2023-03-02T20:39:28.299Z,100896.57
2023-03-02T20:41:57.476Z,100905.22
2023-03-02T20:44:27.450Z,100900.24
2023-03-02T20:46:57.847Z,100901.81
2023-03-02T20:49:27.944Z,100904.17
2023-03-02T20:51:58.358Z,100900.69
2023-03-02T20:54:28.942Z,100905.07
2023-03-02T20:56:58.154Z,100909.45
2023-03-02T20:59:27.927Z,100905.44
2023-03-02T21:01:56.813Z,100908.23
2023-03-02T21:04:25.652Z,100903.27
2023-03-02T21:06:55.165Z,100902.38
2023-03-02T21:09:24.096Z,100901.48
2023-03-02T21:11:52.956Z,100897.39
2023-03-02T21:14:22.356Z,100893.70
2023-03-02T21:16:51.248Z,100896.28
2023-03-02T21:19:20.144Z,100897.11
2023-03-02T21:21:48.944Z,100896.31
2023-03-02T21:24:18.292Z,100898.77
2023-03-02T21:26:47.807Z,100895.14
2023-03-02T21:29:17.468Z,100890.51
2023-03-02T21:31:47.847Z,100891.23
2023-03-02T21:34:18.888Z,100891.29
2023-03-02T21:36:47.718Z,100891.51
2023-03-02T21:39:16.612Z,100884.83
2023-03-02T21:41:45.527Z,100881.67
2023-03-02T21:44:14.518Z,100880.84
2023-03-02T21:46:43.592Z,100872.95
2023-03-02T21:49:12.589Z,100871.43
2023-03-02T21:51:41.407Z,100870.44
2023-03-02T21:54:10.220Z,100873.58
2023-03-02T21:56:39.086Z,100870.84
2023-03-02T21:59:07.955Z,100870.87
2023-03-02T22:01:36.849Z,100871.20
2023-03-02T22:04:06.249Z,100868.27
2023-03-02T22:06:35.630Z,100867.89
2023-03-02T22:09:04.903Z,100868.98
2023-03-02T22:11:34.553Z,100868.67
2023-03-02T22:14:04.609Z,100870.02
2023-03-02T22:16:36.745Z,100874.33
2023-03-02T22:19:08.919Z,100872.61
2023-03-02T22:21:38.962Z,100873.10
2023-03-02T22:24:19.759Z,100873.81
2023-03-02T22:26:50.760Z,100874.98
2023-03-02T22:29:24.114Z,100872.67
2023-03-02T22:31:56.514Z,100869.52
2023-03-02T22:34:26.941Z,100866.77
2023-03-02T22:36:59.803Z,100869.80
2023-03-02T22:39:31.851Z,100871.68
2023-03-02T22:42:06.341Z,100867.71
2023-03-02T22:44:35.311Z,100867.15
2023-03-02T22:47:07.951Z,100862.77
2023-03-02T22:49:36.800Z,100862.00
2023-03-02T22:52:12.324Z,100863.66
2023-03-02T22:54:41.170Z,100863.93
2023-03-02T22:57:18.114Z,100855.79
2023-03-02T22:59:47.009Z,100858.70
2023-03-02T23:02:18.614Z,100859.20
2023-03-02T23:04:48.408Z,100851.23
2023-03-02T23:07:19.499Z,100845.50
2023-03-02T23:09:49.043Z,100840.66
2023-03-02T23:12:19.883Z,100843.88
2023-03-02T23:14:50.353Z,100844.36
2023-03-02T23:17:22.106Z,100844.39
2023-03-02T23:19:51.444Z,100848.58
2023-03-02T23:22:20.303Z,100848.25
2023-03-02T23:24:49.179Z,100845.61
2023-03-02T23:27:18.017Z,100839.65
2023-03-02T23:29:46.896Z,100844.06
2023-03-02T23:32:18.316Z,100842.17
2023-03-02T23:34:48.213Z,100841.92
2023-03-02T23:37:17.157Z,100846.31
2023-03-02T23:39:46.267Z,100846.25
2023-03-02T23:42:15.205Z,100843.98
2023-03-02T23:44:45.232Z,100842.00
2023-03-02T23:47:14.220Z,100834.50
2023-03-02T23:49:43.037Z,100829.07
2023-03-02T23:52:11.947Z,100837.11
2023-03-02T23:54:42.085Z,100834.77
2023-03-02T23:57:10.867Z,100835.39
2023-03-02T23:59:39.727Z,100834.70
